»·PEaware :: AAL899 KLAX-KPHX

AAL899 :: KLAX-KPHX

FLIGHT INFORMATION

Flight Status: Arrived
Operator:
American Airlines
More flights by this operator :: More flights under this callsign
Pilot: Chris O. (30024)
Aircraft: AIRBUS A319
(A319)
More flights by this aircraft type
Origin: KLAX Los Angeles Intl
United States
Destination: KPHX Phoenix Sky Harbor Intl
United States
More flights between these airports :: More routes between these airports
Route: +DOTSS2 CNERY BLH HYDRR1
File this flight plan on PilotEdge
Remarks: RMK / SIMBRIEF
Altitude:
(Current/Filed)
35,000ft
Speed:
(Current/Filed)
431kts
Departed: 22-Nov-20 02:13 PM
Arrived: 22-Nov-20 03:07 PM
Distance/Time
Traveled:
321nm/0:54
Distance/Time
To Go:
Arrived

Flight Plot

Page will automatically refresh every two minutes.

Flight plan parsing failed; only flown route is shown


Map Options




Map Legend


Flown Route
Filed Route
Departure Airport
Arrival Airport
Navaid (VOR, NDB)
Fix

Horizontal Profiles

Position Reports

Time Latitude Longitude Heading Altitude Ground
Speed
22-Nov-20 13:56 33.941459 -118.401512 264 120ft 0kts
22-Nov-20 13:57 33.941459 -118.401512 264 120ft 0kts
22-Nov-20 13:58 33.941459 -118.401511 264 120ft 0kts
22-Nov-20 13:59 33.941470 -118.401388 263 120ft 2kts
22-Nov-20 14:00 33.941734 -118.400877 189 119ft 2kts
22-Nov-20 14:01 33.941879 -118.400882 172 119ft 0kts
22-Nov-20 14:02 33.941879 -118.400882 172 119ft 0kts
22-Nov-20 14:03 33.941748 -118.400853 169 119ft 7kts
22-Nov-20 14:04 33.938930 -118.398783 82 115ft 18kts
22-Nov-20 14:05 33.939793 -118.390490 83 105ft 30kts
22-Nov-20 14:06 33.940771 -118.381050 90 101ft 20kts
22-Nov-20 14:07 33.940743 -118.380746 105 101ft 0kts
22-Nov-20 14:08 33.940743 -118.380746 105 101ft 0kts
22-Nov-20 14:09 33.940743 -118.380746 105 101ft 0kts
22-Nov-20 14:10 33.940743 -118.380746 105 101ft 0kts
22-Nov-20 14:11 33.940004 -118.380240 209 101ft 9kts
22-Nov-20 14:12 33.935906 -118.416547 261 716ft 201kts
22-Nov-20 14:13 33.918330 -118.485155 232 3699ft 230kts
22-Nov-20 14:14 33.877772 -118.546673 232 5033ft 255kts
22-Nov-20 14:15 33.812186 -118.560438 162 6738ft 281kts
22-Nov-20 14:16 33.736543 -118.534345 167 7337ft 285kts
22-Nov-20 14:17 33.674445 -118.482374 104 9344ft 299kts
22-Nov-20 14:18 33.655653 -118.381159 107 12312ft 323kts
22-Nov-20 14:19 33.648860 -118.265912 92 14425ft 374kts
22-Nov-20 14:20 33.647826 -118.134660 92 15850ft 400kts
22-Nov-20 14:21 33.647550 -117.996369 92 18805ft 441kts
22-Nov-20 14:22 33.648334 -117.842864 91 22423ft 471kts
22-Nov-20 14:23 33.627448 -117.685900 111 25355ft 488kts
22-Nov-20 14:24 33.589409 -117.527822 111 28327ft 497kts
22-Nov-20 14:25 33.546057 -117.372155 116 31300ft 487kts
22-Nov-20 14:26 33.508175 -117.216799 99 33471ft 502kts
22-Nov-20 14:27 33.508770 -117.049151 96 34968ft 511kts
22-Nov-20 14:28 33.505809 -116.875445 96 34977ft 526kts
22-Nov-20 14:29 33.502115 -116.700997 96 34970ft 524kts
22-Nov-20 14:30 33.498432 -116.526624 96 34957ft 525kts
22-Nov-20 14:31 33.494867 -116.350772 96 34941ft 532kts
22-Nov-20 14:32 33.491343 -116.173688 96 34931ft 532kts
22-Nov-20 14:33 33.491786 -115.996370 82 34923ft 540kts
22-Nov-20 14:34 33.543429 -115.826341 70 34932ft 544kts
22-Nov-20 14:35 33.594941 -115.655878 71 34932ft 544kts
22-Nov-20 14:36 33.626689 -115.481342 93 34931ft 534kts
22-Nov-20 14:37 33.624306 -115.303931 96 34930ft 532kts
22-Nov-20 14:38 33.621188 -115.125944 96 34965ft 533kts
22-Nov-20 14:39 33.612996 -114.948783 100 34975ft 532kts
22-Nov-20 14:40 33.597690 -114.773433 101 34352ft 514kts
22-Nov-20 14:41 33.577666 -114.606764 105 33169ft 499kts
22-Nov-20 14:42 33.553635 -114.444931 105 31396ft 487kts
22-Nov-20 14:43 33.522874 -114.293030 111 28976ft 469kts
22-Nov-20 14:44 33.489267 -114.151550 115 26048ft 424kts
22-Nov-20 14:45 33.460955 -114.015845 105 24972ft 412kts
22-Nov-20 14:46 33.433288 -113.883608 110 24954ft 410kts
22-Nov-20 14:47 33.403819 -113.751390 110 23452ft 420kts
22-Nov-20 14:48 33.372809 -113.617928 110 21945ft 394kts
22-Nov-20 14:49 33.344952 -113.487956 101 21409ft 407kts
22-Nov-20 14:50 33.326601 -113.356896 105 19945ft 393kts
22-Nov-20 14:51 33.305450 -113.230569 105 18955ft 385kts
22-Nov-20 14:52 33.287045 -113.104226 93 18686ft 391kts
22-Nov-20 14:53 33.285483 -112.978045 95 16968ft 365kts
22-Nov-20 14:54 33.282808 -112.861279 94 16957ft 348kts
22-Nov-20 14:55 33.311864 -112.747850 70 14455ft 361kts
22-Nov-20 14:56 33.347975 -112.642149 65 11497ft 327kts
22-Nov-20 14:57 33.384575 -112.548646 64 9060ft 289kts
22-Nov-20 14:58 33.415231 -112.465482 64 7088ft 261kts
22-Nov-20 14:59 33.427993 -112.383787 84 5137ft 245kts
22-Nov-20 15:00 33.428822 -112.311775 114 3982ft 196kts
22-Nov-20 15:01 33.426786 -112.251867 74 3779ft 186kts
22-Nov-20 15:02 33.437392 -112.189161 85 3680ft 184kts
22-Nov-20 15:03 33.440605 -112.131900 84 3073ft 170kts
22-Nov-20 15:04 33.441500 -112.075252 90 2175ft 160kts
22-Nov-20 15:05 33.440896 -112.023715 86 1138ft 148kts
22-Nov-20 15:06 33.439958 -112.007315 176 1131ft 0kts
22-Nov-20 15:07 33.439130 -112.007087 130 1131ft 12kts
22-Nov-20 15:08 33.438849 -112.001395 199 1131ft 8kts
22-Nov-20 15:10 33.438339 -112.001603 201 1131ft 0kts
22-Nov-20 15:11 33.438339 -112.001603 201 1131ft 0kts
22-Nov-20 15:12 33.438339 -112.001603 201 1131ft 0kts
22-Nov-20 15:13 33.438339 -112.001603 201 1131ft 0kts
22-Nov-20 15:14 33.438339 -112.001603 201 1131ft 0kts
22-Nov-20 15:15 33.438339 -112.001603 201 1131ft 0kts
22-Nov-20 15:16 33.438339 -112.001603 201 1131ft 0kts
22-Nov-20 15:17 33.438339 -112.001603 201 1131ft 0kts
22-Nov-20 15:18 33.438339 -112.001603 201 1131ft 0kts
22-Nov-20 15:19 33.438339 -112.001603 201 1131ft 0kts
22-Nov-20 15:20 33.438339 -112.001603 201 1131ft 0kts
22-Nov-20 15:21 33.438339 -112.001603 201 1131ft 0kts
22-Nov-20 15:22 33.438339 -112.001603 201 1131ft 0kts

Navigation Log

Ident Type
Flight plan parsing failed, navigation log unavailable